Flight Track Log - Related Links

Times and Time Zones

All times are in EDT time to prevent confusion due to time zone crossing. See the JTL909 flight status page for this flight to view local times or setup timezone preferences in your user account.

Time Position Orientation Groundspeed Altitude Reporting Facility
EDT Latitude Longitude Course Direction KTS MPH feet Rate Location/Type
Tue 03:35:51 PM 32.3569 -99.4842 90° East 237 273 9,800  Level Fort Worth Center
Tue 03:36:51 PM 32.3458 -99.3953 98° East 250 288 12,000 1,450 Climbing Fort Worth Center
Tue 03:37:51 PM 32.3328 -99.2919 98° East 285 328 12,700 1,600 Climbing Fort Worth Center
Tue 03:38:51 PM 32.3197 -99.1908 99° East 302 348 15,200 2,500 Climbing Fort Worth Center
Tue 03:39:00 PM 32.5044 -99.1130 108° East  Level Estimated
Tue 03:39:51 PM 32.3169 -99.0875 92° East 312 359 17,700  Level Fort Worth Center
Tue 03:40:00 PM 32.5196 -99.0181 90° East  Level Estimated
Tue 03:40:51 PM 32.3161 -98.9817 91° East 312 359 20,100  Level Fort Worth Center
Tue 03:41:00 PM 32.5348 -98.9231 90° East  Level Estimated
Tue 03:41:51 PM 32.3217 -98.8689 87° East 312 359 21,000  Level Fort Worth Center
Tue 03:42:51 PM 32.2792 -98.7478 113° Southeast 342 394 21,000  Level Fort Worth Center
Tue 03:43:51 PM 32.2514 -98.6219 105° East 363 418 21,000  Level Fort Worth Center
Tue 03:44:51 PM 32.2567 -98.4919 87° East 379 436 21,000 -50 Level Fort Worth Center
Tue 03:45:51 PM 32.2578 -98.3617 89° East 399 459 20,900 -700 Descending Fort Worth Center
Tue 03:46:51 PM 32.2606 -98.2486 88° East 394 453 19,600 -1,500 Descending Fort Worth Center
Tue 03:47:51 PM 32.2636 -98.1161 88° East 373 429 17,900 -1,750 Descending Fort Worth Center
Tue 03:48:51 PM 32.2661 -98.0106 88° East 360 414 16,100 -1,950 Descending Fort Worth Center
Tue 03:49:51 PM 32.2731 -97.8778 86° East 360 414 14,000 -1,950 Descending Fort Worth Center
Tue 03:50:51 PM 32.2983 -97.7797 73° East 352 405 12,200 -1,950 Descending Fort Worth Center
Tue 03:51:51 PM 32.3569 -97.6864 53° Northeast 316 364 10,100 -1,950 Descending Fort Worth Center
Tue 03:52:51 PM 32.4156 -97.6225 43° Northeast 311 358 8,300 -1,950 Descending Fort Worth Center
Tue 03:53:51 PM 32.4303 -97.5242 80° East 275 316 6,200 -1,650 Descending Fort Worth Center
Tue 03:54:51 PM 32.4389 -97.4453 83° East 270 311 5,000 -600 Descending Fort Worth Center
Tue 03:55:51 PM 32.4492 -97.3542 82° East 258 297 5,000  Level Fort Worth Center
Tue 03:56:26 PM 32.4500 -97.3000 89° East 261 300 5,000  Level Dallas / Fort Worth TRACON
Tue 03:57:31 PM 32.4667 -97.2167 77° East 256 295 5,000 -48 Level Dallas / Fort Worth TRACON
Tue 03:58:31 PM 32.4833 -97.1333 77° East 247 284 4,900 -347 Descending Dallas / Fort Worth TRACON
Tue 03:59:32 PM 32.4833 -97.0500 90° East 258 297 4,300 -446 Descending Dallas / Fort Worth TRACON
Tue 04:00:32 PM 32.5167 -96.9667 65° Northeast 260 299 4,000 -151 Descending Dallas / Fort Worth TRACON
Tue 04:01:31 PM 32.5500 -96.9000 59° Northeast 256 295 4,000  Level Dallas / Fort Worth TRACON
Tue 04:02:37 PM 32.6167 -96.8667 23° Northeast 270 311 4,000  Level Dallas / Fort Worth TRACON
Tue 04:03:37 PM 32.7000 -96.8667 360° North 282 325 4,000 -298 Level Dallas / Fort Worth TRACON
Tue 04:04:38 PM 32.7667 -96.8667 360° North 244 281 3,400 -504 Descending Dallas / Fort Worth TRACON
Tue 04:05:36 PM 32.8333 -96.9000 337° Northwest 205 236 3,000 -661 Descending Dallas / Fort Worth TRACON
Tue 04:06:36 PM 32.8667 -96.9167 337° Northwest 169 194 2,100 -1,000 Descending Dallas / Fort Worth TRACON
Tue 04:07:30 PM 32.8667 -96.8833 90° East 141 162 1,100 -1,111 Descending Dallas / Fort Worth TRACON
Tue 04:09:00 PM 32.8471 -96.8518 140° Southeast  Level Estimated
Tue 04:16:00 PM 32.8471 -96.8518 140° Southeast  Level Estimated

Login

Don't have an account? Register now (free) for customized features, flight alerts, and more!